sensor_id;sensor_type;location;lat;lon;timestamp;P1;durP1;ratioP1;P2;durP2;ratioP2
58567;SDS011;44354;46.192;-1.076;2023-02-05T00:01:56;14.38;;;13.68;;
58567;SDS011;44354;46.192;-1.076;2023-02-05T00:04:22;15.57;;;14.77;;
58567;SDS011;44354;46.192;-1.076;2023-02-05T00:06:49;14.93;;;14.18;;
58567;SDS011;44354;46.192;-1.076;2023-02-05T00:09:15;14.57;;;13.45;;
58567;SDS011;44354;46.192;-1.076;2023-02-05T00:11:40;13.43;;;12.73;;
58567;SDS011;44354;46.192;-1.076;2023-02-05T00:14:06;15.90;;;15.10;;
58567;SDS011;44354;46.192;-1.076;2023-02-05T00:16:33;14.60;;;13.90;;
58567;SDS011;44354;46.192;-1.076;2023-02-05T00:18:59;15.55;;;14.75;;
58567;SDS011;44354;46.192;-1.076;2023-02-05T00:21:25;15.35;;;14.55;;
58567;SDS011;44354;46.192;-1.076;2023-02-05T00:23:51;14.68;;;13.98;;
58567;SDS011;44354;46.192;-1.076;2023-02-05T00:26:17;15.68;;;14.88;;
58567;SDS011;44354;46.192;-1.076;2023-02-05T00:28:44;14.85;;;14.05;;
58567;SDS011;44354;46.192;-1.076;2023-02-05T00:31:11;15.57;;;14.77;;
58567;SDS011;44354;46.192;-1.076;2023-02-05T00:33:43;15.32;;;14.52;;
58567;SDS011;44354;46.192;-1.076;2023-02-05T00:36:10;14.88;;;14.07;;
58567;SDS011;44354;46.192;-1.076;2023-02-05T00:38:37;15.80;;;15.00;;
58567;SDS011;44354;46.192;-1.076;2023-02-05T00:41:02;14.07;;;13.38;;
58567;SDS011;44354;46.192;-1.076;2023-02-05T00:43:28;14.07;;;13.38;;
58567;SDS011;44354;46.192;-1.076;2023-02-05T00:45:54;14.35;;;13.65;;
58567;SDS011;44354;46.192;-1.076;2023-02-05T00:48:20;14.10;;;13.40;;
58567;SDS011;44354;46.192;-1.076;2023-02-05T00:50:46;16.25;;;15.45;;
58567;SDS011;44354;46.192;-1.076;2023-02-05T00:53:16;13.70;;;13.00;;
58567;SDS011;44354;46.192;-1.076;2023-02-05T00:55:42;14.85;;;14.10;;
58567;SDS011;44354;46.192;-1.076;2023-02-05T00:58:08;16.52;;;15.73;;
58567;SDS011;44354;46.192;-1.076;2023-02-05T01:00:34;15.15;;;14.35;;
58567;SDS011;44354;46.192;-1.076;2023-02-05T01:02:59;14.80;;;14.07;;
58567;SDS011;44354;46.192;-1.076;2023-02-05T01:05:25;14.48;;;13.77;;
58567;SDS011;44354;46.192;-1.076;2023-02-05T01:07:52;16.27;;;15.48;;
58567;SDS011;44354;46.192;-1.076;2023-02-05T01:10:18;17.10;;;16.20;;
58567;SDS011;44354;46.192;-1.076;2023-02-05T01:12:43;14.45;;;13.75;;
58567;SDS011;44354;46.192;-1.076;2023-02-05T01:15:11;14.90;;;14.15;;
58567;SDS011;44354;46.192;-1.076;2023-02-05T01:17:37;16.02;;;15.23;;
58567;SDS011;44354;46.192;-1.076;2023-02-05T01:20:03;17.85;;;16.95;;
58567;SDS011;44354;46.192;-1.076;2023-02-05T01:22:30;18.65;;;17.65;;
58567;SDS011;44354;46.192;-1.076;2023-02-05T01:24:56;17.75;;;16.85;;
58567;SDS011;44354;46.192;-1.076;2023-02-05T01:27:21;16.73;;;15.90;;
58567;SDS011;44354;46.192;-1.076;2023-02-05T01:29:48;17.63;;;16.73;;
58567;SDS011;44354;46.192;-1.076;2023-02-05T01:32:14;16.67;;;15.85;;
58567;SDS011;44354;46.192;-1.076;2023-02-05T01:34:41;17.35;;;16.40;;
58567;SDS011;44354;46.192;-1.076;2023-02-05T01:37:06;16.77;;;15.93;;
58567;SDS011;44354;46.192;-1.076;2023-02-05T01:39:32;18.17;;;17.27;;
58567;SDS011;44354;46.192;-1.076;2023-02-05T01:41:58;19.63;;;18.63;;
58567;SDS011;44354;46.192;-1.076;2023-02-05T01:44:24;16.70;;;15.80;;
58567;SDS011;44354;46.192;-1.076;2023-02-05T01:46:50;16.67;;;15.85;;
58567;SDS011;44354;46.192;-1.076;2023-02-05T01:49:22;16.40;;;15.50;;
58567;SDS011;44354;46.192;-1.076;2023-02-05T01:51:51;19.98;;;18.73;;
58567;SDS011;44354;46.192;-1.076;2023-02-05T01:54:19;19.05;;;18.05;;
58567;SDS011;44354;46.192;-1.076;2023-02-05T01:56:50;23.95;;;22.52;;
58567;SDS011;44354;46.192;-1.076;2023-02-05T01:59:24;17.75;;;16.85;;
58567;SDS011;44354;46.192;-1.076;2023-02-05T02:01:53;17.52;;;16.63;;
58567;SDS011;44354;46.192;-1.076;2023-02-05T02:04:38;17.90;;;17.00;;
58567;SDS011;44354;46.192;-1.076;2023-02-05T02:07:06;16.70;;;15.85;;
58567;SDS011;44354;46.192;-1.076;2023-02-05T02:09:35;16.92;;;16.02;;
58567;SDS011;44354;46.192;-1.076;2023-02-05T02:12:02;16.75;;;15.82;;
58567;SDS011;44354;46.192;-1.076;2023-02-05T02:14:30;17.17;;;16.27;;
58567;SDS011;44354;46.192;-1.076;2023-02-05T02:16:58;16.98;;;16.08;;
58567;SDS011;44354;46.192;-1.076;2023-02-05T02:19:50;17.10;;;16.20;;
58567;SDS011;44354;46.192;-1.076;2023-02-05T02:28:14;17.23;;;16.33;;
58567;SDS011;44354;46.192;-1.076;2023-02-05T02:30:58;22.38;;;20.75;;
58567;SDS011;44354;46.192;-1.076;2023-02-05T02:41:33;19.17;;;18.17;;
58567;SDS011;44354;46.192;-1.076;2023-02-05T02:47:12;17.67;;;16.77;;
58567;SDS011;44354;46.192;-1.076;2023-02-05T02:49:50;16.80;;;15.93;;
58567;SDS011;44354;46.192;-1.076;2023-02-05T02:52:20;15.77;;;14.98;;
58567;SDS011;44354;46.192;-1.076;2023-02-05T02:54:49;20.63;;;19.08;;
58567;SDS011;44354;46.192;-1.076;2023-02-05T02:57:20;17.30;;;16.38;;
58567;SDS011;44354;46.192;-1.076;2023-02-05T02:59:48;18.85;;;17.85;;
58567;SDS011;44354;46.192;-1.076;2023-02-05T03:02:17;17.92;;;17.02;;
58567;SDS011;44354;46.192;-1.076;2023-02-05T03:04:45;19.25;;;18.25;;
58567;SDS011;44354;46.192;-1.076;2023-02-05T03:07:24;18.05;;;17.15;;
58567;SDS011;44354;46.192;-1.076;2023-02-05T03:10:00;17.98;;;17.08;;
58567;SDS011;44354;46.192;-1.076;2023-02-05T03:12:38;19.10;;;18.10;;
58567;SDS011;44354;46.192;-1.076;2023-02-05T03:15:04;19.95;;;18.95;;
58567;SDS011;44354;46.192;-1.076;2023-02-05T03:17:31;18.25;;;17.35;;
58567;SDS011;44354;46.192;-1.076;2023-02-05T03:20:02;18.40;;;17.48;;
58567;SDS011;44354;46.192;-1.076;2023-02-05T03:22:30;17.45;;;16.55;;
58567;SDS011;44354;46.192;-1.076;2023-02-05T03:24:56;18.05;;;17.15;;
58567;SDS011;44354;46.192;-1.076;2023-02-05T03:27:22;19.10;;;18.10;;
58567;SDS011;44354;46.192;-1.076;2023-02-05T03:29:48;18.25;;;17.35;;
58567;SDS011;44354;46.192;-1.076;2023-02-05T03:43:15;19.48;;;18.48;;
58567;SDS011;44354;46.192;-1.076;2023-02-05T03:45:58;18.08;;;17.17;;
58567;SDS011;44354;46.192;-1.076;2023-02-05T03:56:57;17.88;;;16.98;;
58567;SDS011;44354;46.192;-1.076;2023-02-05T03:59:31;17.75;;;16.85;;
58567;SDS011;44354;46.192;-1.076;2023-02-05T04:01:58;17.92;;;17.02;;
58567;SDS011;44354;46.192;-1.076;2023-02-05T04:04:24;18.00;;;17.10;;
58567;SDS011;44354;46.192;-1.076;2023-02-05T04:06:51;19.13;;;18.13;;
58567;SDS011;44354;46.192;-1.076;2023-02-05T04:09:17;17.85;;;16.95;;
58567;SDS011;44354;46.192;-1.076;2023-02-05T04:11:44;17.33;;;16.42;;
58567;SDS011;44354;46.192;-1.076;2023-02-05T04:14:09;19.55;;;18.45;;
58567;SDS011;44354;46.192;-1.076;2023-02-05T04:16:35;18.88;;;17.88;;
58567;SDS011;44354;46.192;-1.076;2023-02-05T04:19:01;16.67;;;15.85;;
58567;SDS011;44354;46.192;-1.076;2023-02-05T04:21:26;17.35;;;16.45;;
58567;SDS011;44354;46.192;-1.076;2023-02-05T04:23:52;17.95;;;17.05;;
58567;SDS011;44354;46.192;-1.076;2023-02-05T04:26:18;19.63;;;18.63;;
58567;SDS011;44354;46.192;-1.076;2023-02-05T04:28:44;20.23;;;19.23;;
58567;SDS011;44354;46.192;-1.076;2023-02-05T04:31:10;18.17;;;17.27;;
58567;SDS011;44354;46.192;-1.076;2023-02-05T04:33:37;18.60;;;17.63;;
58567;SDS011;44354;46.192;-1.076;2023-02-05T04:36:03;19.13;;;18.13;;
58567;SDS011;44354;46.192;-1.076;2023-02-05T04:38:29;20.38;;;19.35;;
58567;SDS011;44354;46.192;-1.076;2023-02-05T04:40:55;17.55;;;16.65;;
58567;SDS011;44354;46.192;-1.076;2023-02-05T04:43:21;18.90;;;17.90;;
58567;SDS011;44354;46.192;-1.076;2023-02-05T04:45:46;18.90;;;17.90;;
58567;SDS011;44354;46.192;-1.076;2023-02-05T04:48:12;19.92;;;18.92;;
58567;SDS011;44354;46.192;-1.076;2023-02-05T04:50:38;17.80;;;16.90;;
58567;SDS011;44354;46.192;-1.076;2023-02-05T04:53:04;20.20;;;19.20;;
58567;SDS011;44354;46.192;-1.076;2023-02-05T04:55:30;18.73;;;17.77;;
58567;SDS011;44354;46.192;-1.076;2023-02-05T04:57:56;17.35;;;16.45;;
58567;SDS011;44354;46.192;-1.076;2023-02-05T05:00:21;19.67;;;18.67;;
58567;SDS011;44354;46.192;-1.076;2023-02-05T05:02:47;19.48;;;18.48;;
58567;SDS011;44354;46.192;-1.076;2023-02-05T05:05:13;18.08;;;17.17;;
58567;SDS011;44354;46.192;-1.076;2023-02-05T05:07:39;20.67;;;19.60;;
58567;SDS011;44354;46.192;-1.076;2023-02-05T05:10:05;19.30;;;18.30;;
58567;SDS011;44354;46.192;-1.076;2023-02-05T05:12:32;17.42;;;16.52;;
58567;SDS011;44354;46.192;-1.076;2023-02-05T05:14:59;17.90;;;17.00;;
58567;SDS011;44354;46.192;-1.076;2023-02-05T05:17:24;17.25;;;16.35;;
58567;SDS011;44354;46.192;-1.076;2023-02-05T05:19:50;17.60;;;16.70;;
58567;SDS011;44354;46.192;-1.076;2023-02-05T05:22:16;18.88;;;17.90;;
58567;SDS011;44354;46.192;-1.076;2023-02-05T05:24:42;20.42;;;19.33;;
58567;SDS011;44354;46.192;-1.076;2023-02-05T05:27:08;18.48;;;17.55;;
58567;SDS011;44354;46.192;-1.076;2023-02-05T05:29:34;17.90;;;17.00;;
58567;SDS011;44354;46.192;-1.076;2023-02-05T05:32:00;17.70;;;16.80;;
58567;SDS011;44354;46.192;-1.076;2023-02-05T05:34:26;18.35;;;17.45;;
58567;SDS011;44354;46.192;-1.076;2023-02-05T05:36:51;17.52;;;16.63;;
58567;SDS011;44354;46.192;-1.076;2023-02-05T05:39:17;18.35;;;17.45;;
58567;SDS011;44354;46.192;-1.076;2023-02-05T05:42:02;18.02;;;17.13;;
58567;SDS011;44354;46.192;-1.076;2023-02-05T05:44:47;18.20;;;17.30;;
58567;SDS011;44354;46.192;-1.076;2023-02-05T05:47:16;18.00;;;17.10;;
58567;SDS011;44354;46.192;-1.076;2023-02-05T05:49:42;19.90;;;18.90;;
58567;SDS011;44354;46.192;-1.076;2023-02-05T05:52:09;16.00;;;15.20;;
58567;SDS011;44354;46.192;-1.076;2023-02-05T05:54:35;17.60;;;16.70;;
58567;SDS011;44354;46.192;-1.076;2023-02-05T05:57:00;17.17;;;16.27;;
58567;SDS011;44354;46.192;-1.076;2023-02-05T05:59:26;18.92;;;17.92;;
58567;SDS011;44354;46.192;-1.076;2023-02-05T06:01:52;17.98;;;17.08;;
58567;SDS011;44354;46.192;-1.076;2023-02-05T06:04:18;17.02;;;16.13;;
58567;SDS011;44354;46.192;-1.076;2023-02-05T06:06:44;18.15;;;17.25;;
58567;SDS011;44354;46.192;-1.076;2023-02-05T06:09:10;17.27;;;16.38;;
58567;SDS011;44354;46.192;-1.076;2023-02-05T06:11:37;17.13;;;16.23;;
58567;SDS011;44354;46.192;-1.076;2023-02-05T06:14:03;17.65;;;16.75;;
58567;SDS011;44354;46.192;-1.076;2023-02-05T06:16:28;17.27;;;16.38;;
58567;SDS011;44354;46.192;-1.076;2023-02-05T06:18:55;16.67;;;15.82;;
58567;SDS011;44354;46.192;-1.076;2023-02-05T06:21:21;18.55;;;17.65;;
58567;SDS011;44354;46.192;-1.076;2023-02-05T06:23:47;17.38;;;16.48;;
58567;SDS011;44354;46.192;-1.076;2023-02-05T06:26:13;17.83;;;16.92;;
58567;SDS011;44354;46.192;-1.076;2023-02-05T06:42:52;15.93;;;15.13;;
58567;SDS011;44354;46.192;-1.076;2023-02-05T06:45:18;17.52;;;16.63;;
58567;SDS011;44354;46.192;-1.076;2023-02-05T06:47:44;15.55;;;14.65;;
58567;SDS011;44354;46.192;-1.076;2023-02-05T06:50:09;14.23;;;13.52;;
58567;SDS011;44354;46.192;-1.076;2023-02-05T06:52:35;14.30;;;13.60;;
58567;SDS011;44354;46.192;-1.076;2023-02-05T06:55:02;13.63;;;12.93;;
58567;SDS011;44354;46.192;-1.076;2023-02-05T06:57:27;12.98;;;12.30;;
58567;SDS011;44354;46.192;-1.076;2023-02-05T06:59:53;14.73;;;13.93;;
58567;SDS011;44354;46.192;-1.076;2023-02-05T07:02:19;13.68;;;12.98;;
58567;SDS011;44354;46.192;-1.076;2023-02-05T07:04:44;14.10;;;13.25;;
58567;SDS011;44354;46.192;-1.076;2023-02-05T07:07:11;13.43;;;12.73;;
58567;SDS011;44354;46.192;-1.076;2023-02-05T07:09:37;12.63;;;12.02;;
58567;SDS011;44354;46.192;-1.076;2023-02-05T07:12:03;14.55;;;13.85;;
58567;SDS011;44354;46.192;-1.076;2023-02-05T07:14:29;14.95;;;14.15;;
58567;SDS011;44354;46.192;-1.076;2023-02-05T07:16:55;13.60;;;12.90;;
58567;SDS011;44354;46.192;-1.076;2023-02-05T07:19:21;14.45;;;13.75;;
58567;SDS011;44354;46.192;-1.076;2023-02-05T07:21:46;13.88;;;13.18;;
58567;SDS011;44354;46.192;-1.076;2023-02-05T07:24:13;13.35;;;12.65;;
58567;SDS011;44354;46.192;-1.076;2023-02-05T07:26:38;13.20;;;12.50;;
58567;SDS011;44354;46.192;-1.076;2023-02-05T07:29:06;13.63;;;12.93;;
58567;SDS011;44354;46.192;-1.076;2023-02-05T07:31:32;12.90;;;12.27;;
58567;SDS011;44354;46.192;-1.076;2023-02-05T07:33:58;14.10;;;13.40;;
58567;SDS011;44354;46.192;-1.076;2023-02-05T07:36:23;12.73;;;12.13;;
58567;SDS011;44354;46.192;-1.076;2023-02-05T07:38:49;14.00;;;13.30;;
58567;SDS011;44354;46.192;-1.076;2023-02-05T07:41:15;13.30;;;12.60;;
58567;SDS011;44354;46.192;-1.076;2023-02-05T07:43:41;13.25;;;12.55;;
58567;SDS011;44354;46.192;-1.076;2023-02-05T07:46:08;14.23;;;13.18;;
58567;SDS011;44354;46.192;-1.076;2023-02-05T07:48:37;13.38;;;12.68;;
58567;SDS011;44354;46.192;-1.076;2023-02-05T07:51:03;13.63;;;12.93;;
58567;SDS011;44354;46.192;-1.076;2023-02-05T07:53:29;12.10;;;11.50;;
58567;SDS011;44354;46.192;-1.076;2023-02-05T07:55:55;11.80;;;11.20;;
58567;SDS011;44354;46.192;-1.076;2023-02-05T07:58:21;12.45;;;11.85;;
58567;SDS011;44354;46.192;-1.076;2023-02-05T08:00:47;12.88;;;11.85;;
58567;SDS011;44354;46.192;-1.076;2023-02-05T08:03:13;12.13;;;11.35;;
58567;SDS011;44354;46.192;-1.076;2023-02-05T08:05:39;12.82;;;12.20;;
58567;SDS011;44354;46.192;-1.076;2023-02-05T08:08:05;12.30;;;11.70;;
58567;SDS011;44354;46.192;-1.076;2023-02-05T08:10:31;12.25;;;11.65;;
58567;SDS011;44354;46.192;-1.076;2023-02-05T08:12:57;14.18;;;13.38;;
58567;SDS011;44354;46.192;-1.076;2023-02-05T08:15:23;12.68;;;12.07;;
58567;SDS011;44354;46.192;-1.076;2023-02-05T08:17:50;11.93;;;11.32;;
58567;SDS011;44354;46.192;-1.076;2023-02-05T08:20:16;13.60;;;12.90;;
58567;SDS011;44354;46.192;-1.076;2023-02-05T08:22:41;11.38;;;10.77;;
58567;SDS011;44354;46.192;-1.076;2023-02-05T08:25:09;13.50;;;12.80;;
58567;SDS011;44354;46.192;-1.076;2023-02-05T08:27:37;11.90;;;11.25;;
58567;SDS011;44354;46.192;-1.076;2023-02-05T08:30:04;11.45;;;10.85;;
58567;SDS011;44354;46.192;-1.076;2023-02-05T08:32:32;11.80;;;11.20;;
58567;SDS011;44354;46.192;-1.076;2023-02-05T08:34:58;10.85;;;10.25;;
58567;SDS011;44354;46.192;-1.076;2023-02-05T08:37:24;10.90;;;10.40;;
58567;SDS011;44354;46.192;-1.076;2023-02-05T08:39:50;11.13;;;10.60;;
58567;SDS011;44354;46.192;-1.076;2023-02-05T08:42:16;10.80;;;10.30;;
58567;SDS011;44354;46.192;-1.076;2023-02-05T08:44:42;11.38;;;10.77;;
58567;SDS011;44354;46.192;-1.076;2023-02-05T08:47:08;11.52;;;10.93;;
58567;SDS011;44354;46.192;-1.076;2023-02-05T08:49:34;10.63;;;10.13;;
58567;SDS011;44354;46.192;-1.076;2023-02-05T08:52:00;11.50;;;10.90;;
58567;SDS011;44354;46.192;-1.076;2023-02-05T08:54:26;10.52;;;10.02;;
58567;SDS011;44354;46.192;-1.076;2023-02-05T08:56:52;10.70;;;10.20;;
58567;SDS011;44354;46.192;-1.076;2023-02-05T08:59:19;10.23;;;9.73;;
58567;SDS011;44354;46.192;-1.076;2023-02-05T09:01:44;10.73;;;10.23;;
58567;SDS011;44354;46.192;-1.076;2023-02-05T09:04:15;11.05;;;10.52;;
58567;SDS011;44354;46.192;-1.076;2023-02-05T09:06:42;11.35;;;10.75;;
58567;SDS011;44354;46.192;-1.076;2023-02-05T09:09:09;10.77;;;10.18;;
58567;SDS011;44354;46.192;-1.076;2023-02-05T09:11:35;10.25;;;9.75;;
58567;SDS011;44354;46.192;-1.076;2023-02-05T09:14:01;11.25;;;10.68;;
58567;SDS011;44354;46.192;-1.076;2023-02-05T09:16:26;11.23;;;10.63;;
58567;SDS011;44354;46.192;-1.076;2023-02-05T09:18:56;11.60;;;11.00;;
58567;SDS011;44354;46.192;-1.076;2023-02-05T09:21:22;11.57;;;10.98;;
58567;SDS011;44354;46.192;-1.076;2023-02-05T09:23:49;11.35;;;10.75;;
58567;SDS011;44354;46.192;-1.076;2023-02-05T09:26:16;11.73;;;11.13;;
58567;SDS011;44354;46.192;-1.076;2023-02-05T09:28:42;10.88;;;10.38;;
58567;SDS011;44354;46.192;-1.076;2023-02-05T09:31:08;10.15;;;9.65;;
58567;SDS011;44354;46.192;-1.076;2023-02-05T09:33:37;12.07;;;11.48;;
58567;SDS011;44354;46.192;-1.076;2023-02-05T09:36:06;10.73;;;10.23;;
58567;SDS011;44354;46.192;-1.076;2023-02-05T09:38:43;10.25;;;9.75;;
58567;SDS011;44354;46.192;-1.076;2023-02-05T09:49:18;11.27;;;10.68;;
58567;SDS011;44354;46.192;-1.076;2023-02-05T09:52:29;11.13;;;10.57;;
58567;SDS011;44354;46.192;-1.076;2023-02-05T09:55:00;10.95;;;10.45;;
58567;SDS011;44354;46.192;-1.076;2023-02-05T09:57:37;10.50;;;10.00;;
58567;SDS011;44354;46.192;-1.076;2023-02-05T10:00:27;9.85;;;9.35;;
58567;SDS011;44354;46.192;-1.076;2023-02-05T10:05:23;9.85;;;9.35;;
58567;SDS011;44354;46.192;-1.076;2023-02-05T10:08:36;10.48;;;9.98;;
58567;SDS011;44354;46.192;-1.076;2023-02-05T10:10:47;11.55;;;10.95;;
58567;SDS011;44354;46.192;-1.076;2023-02-05T10:22:23;9.88;;;9.38;;
58567;SDS011;44354;46.192;-1.076;2023-02-05T10:25:37;10.48;;;9.98;;
58567;SDS011;44354;46.192;-1.076;2023-02-05T10:28:01;10.68;;;10.18;;
58567;SDS011;44354;46.192;-1.076;2023-02-05T10:30:54;9.65;;;9.15;;
58567;SDS011;44354;46.192;-1.076;2023-02-05T10:36:06;9.55;;;9.05;;
58567;SDS011;44354;46.192;-1.076;2023-02-05T10:38:34;9.45;;;8.98;;
58567;SDS011;44354;46.192;-1.076;2023-02-05T10:41:51;10.35;;;9.85;;
58567;SDS011;44354;46.192;-1.076;2023-02-05T10:46:30;10.85;;;10.30;;
58567;SDS011;44354;46.192;-1.076;2023-02-05T10:49:10;9.75;;;9.25;;
58567;SDS011;44354;46.192;-1.076;2023-02-05T10:51:43;10.63;;;10.05;;
58567;SDS011;44354;46.192;-1.076;2023-02-05T10:56:53;9.25;;;8.75;;
58567;SDS011;44354;46.192;-1.076;2023-02-05T11:01:52;9.70;;;9.20;;
58567;SDS011;44354;46.192;-1.076;2023-02-05T11:04:34;8.38;;;7.97;;
58567;SDS011;44354;46.192;-1.076;2023-02-05T11:07:24;9.63;;;9.13;;
58567;SDS011;44354;46.192;-1.076;2023-02-05T11:09:52;9.05;;;8.65;;
58567;SDS011;44354;46.192;-1.076;2023-02-05T11:12:25;9.80;;;9.30;;
58567;SDS011;44354;46.192;-1.076;2023-02-05T11:14:54;8.37;;;7.97;;
58567;SDS011;44354;46.192;-1.076;2023-02-05T11:17:35;9.43;;;8.95;;
58567;SDS011;44354;46.192;-1.076;2023-02-05T11:20:03;8.95;;;8.55;;
58567;SDS011;44354;46.192;-1.076;2023-02-05T11:23:04;9.23;;;8.77;;
58567;SDS011;44354;46.192;-1.076;2023-02-05T11:25:31;9.15;;;8.73;;
58567;SDS011;44354;46.192;-1.076;2023-02-05T11:27:57;9.75;;;9.25;;
58567;SDS011;44354;46.192;-1.076;2023-02-05T11:30:30;8.82;;;8.43;;
58567;SDS011;44354;46.192;-1.076;2023-02-05T11:33:05;9.82;;;9.32;;
58567;SDS011;44354;46.192;-1.076;2023-02-05T11:35:49;9.43;;;8.95;;
58567;SDS011;44354;46.192;-1.076;2023-02-05T11:38:32;10.02;;;9.52;;
58567;SDS011;44354;46.192;-1.076;2023-02-05T11:41:12;9.95;;;9.45;;
58567;SDS011;44354;46.192;-1.076;2023-02-05T11:43:49;8.48;;;8.07;;
58567;SDS011;44354;46.192;-1.076;2023-02-05T11:46:20;8.82;;;8.43;;
58567;SDS011;44354;46.192;-1.076;2023-02-05T11:51:28;8.70;;;8.30;;
58567;SDS011;44354;46.192;-1.076;2023-02-05T11:54:12;8.15;;;7.75;;
58567;SDS011;44354;46.192;-1.076;2023-02-05T11:56:39;8.40;;;8.00;;
58567;SDS011;44354;46.192;-1.076;2023-02-05T11:59:08;8.25;;;7.85;;
58567;SDS011;44354;46.192;-1.076;2023-02-05T12:01:47;8.48;;;8.07;;
58567;SDS011;44354;46.192;-1.076;2023-02-05T12:04:17;8.45;;;8.05;;
58567;SDS011;44354;46.192;-1.076;2023-02-05T12:06:52;7.63;;;7.22;;
58567;SDS011;44354;46.192;-1.076;2023-02-05T12:09:22;8.30;;;7.90;;
58567;SDS011;44354;46.192;-1.076;2023-02-05T12:23:14;8.38;;;7.97;;
58567;SDS011;44354;46.192;-1.076;2023-02-05T12:39:44;6.93;;;6.63;;
58567;SDS011;44354;46.192;-1.076;2023-02-05T12:58:42;8.70;;;8.30;;
58567;SDS011;44354;46.192;-1.076;2023-02-05T13:01:13;7.95;;;7.55;;
58567;SDS011;44354;46.192;-1.076;2023-02-05T13:03:48;9.00;;;8.60;;
58567;SDS011;44354;46.192;-1.076;2023-02-05T13:06:37;7.70;;;7.30;;
58567;SDS011;44354;46.192;-1.076;2023-02-05T13:09:20;8.48;;;8.07;;
58567;SDS011;44354;46.192;-1.076;2023-02-05T13:11:53;9.75;;;9.23;;
58567;SDS011;44354;46.192;-1.076;2023-02-05T13:14:24;8.15;;;7.75;;
58567;SDS011;44354;46.192;-1.076;2023-02-05T13:17:20;6.95;;;6.65;;
58567;SDS011;44354;46.192;-1.076;2023-02-05T13:20:01;8.48;;;8.07;;
58567;SDS011;44354;46.192;-1.076;2023-02-05T13:22:31;7.10;;;6.80;;
58567;SDS011;44354;46.192;-1.076;2023-02-05T13:25:33;7.65;;;7.25;;
58567;SDS011;44354;46.192;-1.076;2023-02-05T13:28:31;8.20;;;7.80;;
58567;SDS011;44354;46.192;-1.076;2023-02-05T13:31:30;8.15;;;7.75;;
58567;SDS011;44354;46.192;-1.076;2023-02-05T13:34:05;7.70;;;7.30;;
58567;SDS011;44354;46.192;-1.076;2023-02-05T13:58:41;7.95;;;7.55;;
58567;SDS011;44354;46.192;-1.076;2023-02-05T14:01:14;6.38;;;6.07;;
58567;SDS011;44354;46.192;-1.076;2023-02-05T14:04:06;7.60;;;7.22;;
58567;SDS011;44354;46.192;-1.076;2023-02-05T14:07:06;8.05;;;7.65;;
58567;SDS011;44354;46.192;-1.076;2023-02-05T14:09:42;7.55;;;7.15;;
58567;SDS011;44354;46.192;-1.076;2023-02-05T14:12:20;7.75;;;7.35;;
58567;SDS011;44354;46.192;-1.076;2023-02-05T14:20:51;7.10;;;6.78;;
58567;SDS011;44354;46.192;-1.076;2023-02-05T14:23:10;8.20;;;7.80;;
58567;SDS011;44354;46.192;-1.076;2023-02-05T14:30:56;7.82;;;7.43;;
58567;SDS011;44354;46.192;-1.076;2023-02-05T14:35:57;7.18;;;6.88;;
58567;SDS011;44354;46.192;-1.076;2023-02-05T14:38:42;7.38;;;7.05;;
58567;SDS011;44354;46.192;-1.076;2023-02-05T14:41:13;7.85;;;7.45;;
58567;SDS011;44354;46.192;-1.076;2023-02-05T14:43:51;7.65;;;7.25;;
58567;SDS011;44354;46.192;-1.076;2023-02-05T14:46:31;8.32;;;7.93;;
58567;SDS011;44354;46.192;-1.076;2023-02-05T14:49:03;7.53;;;7.15;;
58567;SDS011;44354;46.192;-1.076;2023-02-05T14:51:33;7.53;;;7.15;;
58567;SDS011;44354;46.192;-1.076;2023-02-05T15:00:01;8.05;;;7.65;;
58567;SDS011;44354;46.192;-1.076;2023-02-05T15:05:32;8.52;;;8.13;;
58567;SDS011;44354;46.192;-1.076;2023-02-05T15:10:52;8.18;;;7.78;;
58567;SDS011;44354;46.192;-1.076;2023-02-05T15:13:26;7.57;;;7.18;;
58567;SDS011;44354;46.192;-1.076;2023-02-05T15:18:45;8.13;;;7.72;;
58567;SDS011;44354;46.192;-1.076;2023-02-05T15:21:24;7.70;;;7.30;;
58567;SDS011;44354;46.192;-1.076;2023-02-05T15:24:00;7.80;;;7.40;;
58567;SDS011;44354;46.192;-1.076;2023-02-05T15:32:34;8.00;;;7.60;;
58567;SDS011;44354;46.192;-1.076;2023-02-05T15:35:04;7.53;;;7.15;;
58567;SDS011;44354;46.192;-1.076;2023-02-05T15:37:40;7.70;;;7.30;;
58567;SDS011;44354;46.192;-1.076;2023-02-05T15:42:53;8.00;;;7.60;;
58567;SDS011;44354;46.192;-1.076;2023-02-05T15:48:10;8.63;;;8.23;;
58567;SDS011;44354;46.192;-1.076;2023-02-05T15:50:48;7.75;;;7.35;;
58567;SDS011;44354;46.192;-1.076;2023-02-05T15:53:34;8.98;;;8.57;;
58567;SDS011;44354;46.192;-1.076;2023-02-05T15:56:28;8.40;;;8.00;;
58567;SDS011;44354;46.192;-1.076;2023-02-05T15:59:44;8.50;;;8.10;;
58567;SDS011;44354;46.192;-1.076;2023-02-05T16:01:49;8.15;;;7.75;;
58567;SDS011;44354;46.192;-1.076;2023-02-05T16:04:26;8.43;;;8.02;;
58567;SDS011;44354;46.192;-1.076;2023-02-05T16:06:55;9.07;;;8.68;;
58567;SDS011;44354;46.192;-1.076;2023-02-05T16:09:22;8.77;;;8.38;;
58567;SDS011;44354;46.192;-1.076;2023-02-05T16:11:49;8.02;;;7.63;;
58567;SDS011;44354;46.192;-1.076;2023-02-05T16:22:23;9.00;;;8.60;;
58567;SDS011;44354;46.192;-1.076;2023-02-05T16:24:58;8.65;;;8.25;;
58567;SDS011;44354;46.192;-1.076;2023-02-05T16:30:01;10.23;;;9.73;;
58567;SDS011;44354;46.192;-1.076;2023-02-05T16:34:57;10.07;;;9.57;;
58567;SDS011;44354;46.192;-1.076;2023-02-05T16:37:27;10.52;;;10.02;;
58567;SDS011;44354;46.192;-1.076;2023-02-05T16:39:54;9.60;;;9.10;;
58567;SDS011;44354;46.192;-1.076;2023-02-05T16:42:28;10.55;;;10.05;;
58567;SDS011;44354;46.192;-1.076;2023-02-05T16:47:32;10.52;;;10.02;;
58567;SDS011;44354;46.192;-1.076;2023-02-05T16:49:59;9.60;;;9.10;;
58567;SDS011;44354;46.192;-1.076;2023-02-05T16:52:26;9.18;;;8.75;;
58567;SDS011;44354;46.192;-1.076;2023-02-05T16:54:57;9.85;;;9.35;;
58567;SDS011;44354;46.192;-1.076;2023-02-05T16:57:25;10.30;;;9.80;;
58567;SDS011;44354;46.192;-1.076;2023-02-05T16:59:59;10.55;;;10.05;;
58567;SDS011;44354;46.192;-1.076;2023-02-05T17:02:36;10.00;;;9.50;;
58567;SDS011;44354;46.192;-1.076;2023-02-05T17:05:05;9.98;;;9.48;;
58567;SDS011;44354;46.192;-1.076;2023-02-05T17:07:33;10.25;;;9.75;;
58567;SDS011;44354;46.192;-1.076;2023-02-05T17:10:19;10.50;;;10.00;;
58567;SDS011;44354;46.192;-1.076;2023-02-05T17:13:03;11.20;;;10.63;;
58567;SDS011;44354;46.192;-1.076;2023-02-05T17:15:34;10.73;;;10.23;;
58567;SDS011;44354;46.192;-1.076;2023-02-05T17:18:16;11.45;;;10.85;;
58567;SDS011;44354;46.192;-1.076;2023-02-05T17:20:45;11.02;;;10.50;;
58567;SDS011;44354;46.192;-1.076;2023-02-05T17:23:12;11.52;;;10.93;;
58567;SDS011;44354;46.192;-1.076;2023-02-05T17:25:48;11.98;;;11.38;;
58567;SDS011;44354;46.192;-1.076;2023-02-05T17:28:23;10.20;;;9.70;;
58567;SDS011;44354;46.192;-1.076;2023-02-05T17:30:50;11.00;;;10.50;;
58567;SDS011;44354;46.192;-1.076;2023-02-05T17:33:21;10.10;;;9.60;;
58567;SDS011;44354;46.192;-1.076;2023-02-05T17:35:48;10.73;;;10.23;;
58567;SDS011;44354;46.192;-1.076;2023-02-05T17:38:15;11.55;;;10.95;;
58567;SDS011;44354;46.192;-1.076;2023-02-05T17:40:41;11.77;;;11.18;;
58567;SDS011;44354;46.192;-1.076;2023-02-05T17:43:08;11.25;;;10.68;;
58567;SDS011;44354;46.192;-1.076;2023-02-05T17:45:35;11.85;;;11.25;;
58567;SDS011;44354;46.192;-1.076;2023-02-05T17:48:03;11.48;;;10.88;;
58567;SDS011;44354;46.192;-1.076;2023-02-05T17:50:30;11.68;;;11.07;;
58567;SDS011;44354;46.192;-1.076;2023-02-05T17:52:58;11.20;;;10.65;;
58567;SDS011;44354;46.192;-1.076;2023-02-05T17:55:24;10.70;;;10.20;;
58567;SDS011;44354;46.192;-1.076;2023-02-05T17:57:50;12.38;;;11.77;;